Lähialueen lentokenttien sää

 

EFLP - Lappeenranta, Finland
Distance from station: I 35km
Päivitetty: 17/07/2018 00:20
Selkeätä
Selkeätä
 Tuulen suunta P
Tuuli: P 4 km/h
Lämpötila: 21°C
Kastepiste: 16°C
Kosteus: 73%
Ilmanpaine: 1016 hPa
Yhteenveto: Selkeätä
Visibility: greater than 10 km
2018/07/16 21:20 EFLP 162120Z AUTO 01002KT CAVOK 21/16 Q1016
EFUT - Utti (fin-Afb), Finland
Distance from station: LO 42km
Päivitetty: 17/07/2018 00:20
Selkeätä
Selkeätä
 Tuulen suunta PKO
Tuuli: PKO 15 km/h
Lämpötila: 23°C
Kastepiste: 11°C
Kosteus: 47%
Ilmanpaine: 1016 hPa
Yhteenveto: Selkeätä
Visibility: greater than 10 km
2018/07/16 21:20 EFUT 162120Z AUTO 03008KT CAVOK 23/11 Q1016
 
EFMI - Mikkeli, Finland
Distance from station: P 66km
Päivitetty: 17/07/2018 00:20
Selkeätä
Selkeätä
 Tuulen suunta L
Tuuli: L 2 km/h
Lämpötila: 17°C
Kastepiste: 14°C
Kosteus: 83%
Ilmanpaine: 1017 hPa
Yhteenveto: Selkeätä
Visibility: greater than 10 km
2018/07/16 21:20 EFMI 162120Z AUTO 28001KT CAVOK 17/14 Q1017
EFVR - Varkaus, Finland
Distance from station: P 117km
Päivitetty: 15/04/2016 08:50
NOT Current
Selkeätä
Selkeätä
 Tuulen suunta PLU
Tuuli: PLU 15 km/h
Lämpötila: -1°C
Wind Chill: -6°C
Kastepiste: -8°C
Kosteus: 59%
Ilmanpaine: 1005 hPa
Yhteenveto: Selkeätä
Visibility: greater than 10 km
2016/04/15 05:50 EFVR 150550Z AUTO 33008KT CAVOK M01/M08 Q1005
 
EFSA - Savonlinna (aut), Finland
Distance from station: KO 119km
Päivitetty: 17/07/2018 00:20
Selkeätä
Selkeätä
 Tuulen suunta L
Tuuli: L 2 km/h
Lämpötila: 17°C
Kastepiste: 15°C
Kosteus: 88%
Ilmanpaine: 1017 hPa
Yhteenveto: Selkeätä
Visibility: greater than 10 km
2018/07/16 21:20 EFSA 162120Z AUTO 28001KT CAVOK 17/15 Q1017
EFHA - Halli (fin-Afb), Finland
Distance from station: LLU 164km
Päivitetty: 17/07/2018 00:20
Selkeätä
Selkeätä
 Tuulen suunta calm
Tuuli: Tyyntä
Lämpötila: 20°C
Kastepiste: 16°C
Kosteus: 78%
Ilmanpaine: 1017 hPa
Yhteenveto: Selkeätä
Visibility: greater than 10 km
2018/07/16 21:20 EFHA 162120Z AUTO 00000KT CAVOK 20/16 Q1017
 
EFHK - Helsinki/Vantaa, Finland
Distance from station: LLO 165km
Päivitetty: 17/07/2018 00:20
Selkeätä
Selkeätä
 Tuulen suunta PLU
Tuuli: PLU 9 km/h
Lämpötila: 19°C
Kastepiste: 15°C
Kosteus: 78%
Ilmanpaine: 1015 hPa
Yhteenveto: Selkeätä
Visibility: greater than 10 km
2018/07/16 21:20 EFHK 162120Z 34005KT CAVOK 19/15 Q1015 NOSIG
EFHF - Helsinki/Malmi, Finland
Distance from station: LO 165km
Päivitetty: 06/03/2017 17:50
NOT Current
Selkeätä
Selkeätä
 Tuulen suunta KO
Tuuli: KO 11 km/h
Lämpötila: -2°C
Wind Chill: -6°C
Kastepiste: -11°C
Kosteus: 51%
Ilmanpaine: 1021 hPa
Yhteenveto: Selkeätä
Visibility: greater than 10 km
2017/03/06 15:50 EFHF 061550Z 04006KT 330V100 CAVOK M02/M11 Q1021
 
EFJY - Jyvaskyla (mil/C, Finland
Distance from station: LU 170km
Päivitetty: 17/07/2018 00:20
Selkeätä
Selkeätä
 Tuulen suunta LU
Tuuli: LU 6 km/h
Lämpötila: 18°C
Kastepiste: 14°C
Kosteus: 78%
Ilmanpaine: 1017 hPa
Yhteenveto: Selkeätä
Visibility: greater than 10 km
2018/07/16 21:20 EFJY 162120Z AUTO 31003KT CAVOK 18/14 Q1017